sensor_id;sensor_type;location;lat;lon;timestamp;temperature;humidity
13164;DHT22;6647;53.688;10.746;2023-05-20T00:00:00;11.90;99.90
13164;DHT22;6647;53.688;10.746;2023-05-20T00:01:21;11.80;99.90
13164;DHT22;6647;53.688;10.746;2023-05-20T00:02:42;11.80;99.90
13164;DHT22;6647;53.688;10.746;2023-05-20T00:04:04;11.80;99.90
13164;DHT22;6647;53.688;10.746;2023-05-20T00:05:25;11.80;99.90
13164;DHT22;6647;53.688;10.746;2023-05-20T00:06:46;11.80;99.90
13164;DHT22;6647;53.688;10.746;2023-05-20T00:08:07;11.80;99.90
13164;DHT22;6647;53.688;10.746;2023-05-20T00:09:29;11.80;99.90
13164;DHT22;6647;53.688;10.746;2023-05-20T00:10:49;11.80;99.90
13164;DHT22;6647;53.688;10.746;2023-05-20T00:12:10;11.80;99.90
13164;DHT22;6647;53.688;10.746;2023-05-20T00:13:31;11.80;99.90
13164;DHT22;6647;53.688;10.746;2023-05-20T00:14:55;11.70;99.90
13164;DHT22;6647;53.688;10.746;2023-05-20T00:16:16;11.70;99.90
13164;DHT22;6647;53.688;10.746;2023-05-20T00:17:37;11.70;99.90
13164;DHT22;6647;53.688;10.746;2023-05-20T00:18:58;11.80;99.90
13164;DHT22;6647;53.688;10.746;2023-05-20T00:20:18;11.80;99.90
13164;DHT22;6647;53.688;10.746;2023-05-20T00:21:39;11.80;99.90
13164;DHT22;6647;53.688;10.746;2023-05-20T00:23:00;11.70;99.90
13164;DHT22;6647;53.688;10.746;2023-05-20T00:24:21;11.70;99.90
13164;DHT22;6647;53.688;10.746;2023-05-20T00:25:42;11.70;99.90
13164;DHT22;6647;53.688;10.746;2023-05-20T00:27:03;11.70;99.90
13164;DHT22;6647;53.688;10.746;2023-05-20T00:28:24;11.70;99.90
13164;DHT22;6647;53.688;10.746;2023-05-20T00:29:45;11.70;99.90
13164;DHT22;6647;53.688;10.746;2023-05-20T00:31:06;11.70;99.90
13164;DHT22;6647;53.688;10.746;2023-05-20T00:32:27;11.70;99.90
13164;DHT22;6647;53.688;10.746;2023-05-20T00:33:47;11.70;99.90
13164;DHT22;6647;53.688;10.746;2023-05-20T00:35:08;11.70;99.90
13164;DHT22;6647;53.688;10.746;2023-05-20T00:36:30;11.60;99.90
13164;DHT22;6647;53.688;10.746;2023-05-20T00:37:51;11.60;99.90
13164;DHT22;6647;53.688;10.746;2023-05-20T00:39:12;11.70;99.90
13164;DHT22;6647;53.688;10.746;2023-05-20T00:40:33;11.60;99.90
13164;DHT22;6647;53.688;10.746;2023-05-20T00:41:54;11.70;99.90
13164;DHT22;6647;53.688;10.746;2023-05-20T00:43:16;11.70;99.90
13164;DHT22;6647;53.688;10.746;2023-05-20T00:44:37;11.70;99.90
13164;DHT22;6647;53.688;10.746;2023-05-20T00:45:58;11.70;99.90
13164;DHT22;6647;53.688;10.746;2023-05-20T00:47:23;11.70;99.90
13164;DHT22;6647;53.688;10.746;2023-05-20T00:48:45;11.70;99.90
13164;DHT22;6647;53.688;10.746;2023-05-20T00:50:07;11.70;99.90
13164;DHT22;6647;53.688;10.746;2023-05-20T00:51:29;11.70;99.90
13164;DHT22;6647;53.688;10.746;2023-05-20T00:52:50;11.70;99.90
13164;DHT22;6647;53.688;10.746;2023-05-20T00:54:11;11.70;99.90
13164;DHT22;6647;53.688;10.746;2023-05-20T00:55:33;11.70;99.90
13164;DHT22;6647;53.688;10.746;2023-05-20T00:56:55;11.70;99.90
13164;DHT22;6647;53.688;10.746;2023-05-20T00:58:16;11.60;99.90
13164;DHT22;6647;53.688;10.746;2023-05-20T00:59:38;11.60;99.90
13164;DHT22;6647;53.688;10.746;2023-05-20T01:00:59;11.60;99.90
13164;DHT22;6647;53.688;10.746;2023-05-20T01:02:20;11.60;99.90
13164;DHT22;6647;53.688;10.746;2023-05-20T01:03:41;11.60;99.90
13164;DHT22;6647;53.688;10.746;2023-05-20T01:05:02;11.60;99.90
13164;DHT22;6647;53.688;10.746;2023-05-20T01:06:23;11.60;99.90
13164;DHT22;6647;53.688;10.746;2023-05-20T01:07:44;11.60;99.90
13164;DHT22;6647;53.688;10.746;2023-05-20T01:09:05;11.60;99.90
13164;DHT22;6647;53.688;10.746;2023-05-20T01:10:27;11.60;99.90
13164;DHT22;6647;53.688;10.746;2023-05-20T01:12:15;11.60;99.90
13164;DHT22;6647;53.688;10.746;2023-05-20T01:13:42;11.50;99.90
13164;DHT22;6647;53.688;10.746;2023-05-20T01:15:09;11.50;99.90
13164;DHT22;6647;53.688;10.746;2023-05-20T01:16:31;11.50;99.90
13164;DHT22;6647;53.688;10.746;2023-05-20T01:17:58;11.50;99.90
13164;DHT22;6647;53.688;10.746;2023-05-20T01:19:41;11.40;99.90
13164;DHT22;6647;53.688;10.746;2023-05-20T01:21:07;11.40;99.90
13164;DHT22;6647;53.688;10.746;2023-05-20T01:22:29;11.40;99.90
13164;DHT22;6647;53.688;10.746;2023-05-20T01:23:50;11.40;99.90
13164;DHT22;6647;53.688;10.746;2023-05-20T01:25:11;11.40;99.90
13164;DHT22;6647;53.688;10.746;2023-05-20T01:26:32;11.40;99.90
13164;DHT22;6647;53.688;10.746;2023-05-20T01:27:57;11.40;99.90
13164;DHT22;6647;53.688;10.746;2023-05-20T01:29:19;11.40;99.90
13164;DHT22;6647;53.688;10.746;2023-05-20T01:30:43;11.40;99.90
13164;DHT22;6647;53.688;10.746;2023-05-20T01:33:40;11.40;99.90
13164;DHT22;6647;53.688;10.746;2023-05-20T01:35:02;11.30;99.90
13164;DHT22;6647;53.688;10.746;2023-05-20T01:36:23;11.30;99.90
13164;DHT22;6647;53.688;10.746;2023-05-20T01:37:47;11.30;99.90
13164;DHT22;6647;53.688;10.746;2023-05-20T01:39:09;11.30;99.90
13164;DHT22;6647;53.688;10.746;2023-05-20T01:40:32;11.30;99.90
13164;DHT22;6647;53.688;10.746;2023-05-20T01:41:53;11.30;99.90
13164;DHT22;6647;53.688;10.746;2023-05-20T01:43:16;11.30;99.90
13164;DHT22;6647;53.688;10.746;2023-05-20T01:44:38;11.30;99.90
13164;DHT22;6647;53.688;10.746;2023-05-20T01:45:59;11.30;99.90
13164;DHT22;6647;53.688;10.746;2023-05-20T01:47:22;11.30;99.90
13164;DHT22;6647;53.688;10.746;2023-05-20T01:48:43;11.30;99.90
13164;DHT22;6647;53.688;10.746;2023-05-20T01:50:04;11.30;99.90
13164;DHT22;6647;53.688;10.746;2023-05-20T01:51:25;11.40;99.90
13164;DHT22;6647;53.688;10.746;2023-05-20T01:52:47;11.30;99.90
13164;DHT22;6647;53.688;10.746;2023-05-20T01:54:08;11.30;99.90
13164;DHT22;6647;53.688;10.746;2023-05-20T01:55:29;11.20;99.90
13164;DHT22;6647;53.688;10.746;2023-05-20T01:56:50;11.20;99.90
13164;DHT22;6647;53.688;10.746;2023-05-20T01:58:11;11.20;99.90
13164;DHT22;6647;53.688;10.746;2023-05-20T01:59:31;11.20;99.90
13164;DHT22;6647;53.688;10.746;2023-05-20T02:00:52;11.20;99.90
13164;DHT22;6647;53.688;10.746;2023-05-20T02:02:13;11.20;99.90
13164;DHT22;6647;53.688;10.746;2023-05-20T02:03:34;11.20;99.90
13164;DHT22;6647;53.688;10.746;2023-05-20T02:04:55;11.30;99.90
13164;DHT22;6647;53.688;10.746;2023-05-20T02:06:16;11.30;99.90
13164;DHT22;6647;53.688;10.746;2023-05-20T02:07:37;11.20;99.90
13164;DHT22;6647;53.688;10.746;2023-05-20T02:08:58;11.20;99.90
13164;DHT22;6647;53.688;10.746;2023-05-20T02:10:19;11.20;99.90
13164;DHT22;6647;53.688;10.746;2023-05-20T02:11:40;11.30;99.90
13164;DHT22;6647;53.688;10.746;2023-05-20T02:13:01;11.20;99.90
13164;DHT22;6647;53.688;10.746;2023-05-20T02:14:22;11.20;99.90
13164;DHT22;6647;53.688;10.746;2023-05-20T02:15:42;11.20;99.90
13164;DHT22;6647;53.688;10.746;2023-05-20T02:17:04;11.20;99.90
13164;DHT22;6647;53.688;10.746;2023-05-20T02:18:25;11.20;99.90
13164;DHT22;6647;53.688;10.746;2023-05-20T02:19:46;11.20;99.90
13164;DHT22;6647;53.688;10.746;2023-05-20T02:21:07;11.20;99.90
13164;DHT22;6647;53.688;10.746;2023-05-20T02:22:28;11.20;99.90
13164;DHT22;6647;53.688;10.746;2023-05-20T02:23:48;11.10;99.90
13164;DHT22;6647;53.688;10.746;2023-05-20T02:25:09;11.10;99.90
13164;DHT22;6647;53.688;10.746;2023-05-20T02:26:30;11.10;99.90
13164;DHT22;6647;53.688;10.746;2023-05-20T02:27:51;11.10;99.90
13164;DHT22;6647;53.688;10.746;2023-05-20T02:29:12;11.10;99.90
13164;DHT22;6647;53.688;10.746;2023-05-20T02:30:33;11.10;99.90
13164;DHT22;6647;53.688;10.746;2023-05-20T02:31:54;11.20;99.90
13164;DHT22;6647;53.688;10.746;2023-05-20T02:33:14;11.20;99.90
13164;DHT22;6647;53.688;10.746;2023-05-20T02:34:35;11.20;99.90
13164;DHT22;6647;53.688;10.746;2023-05-20T02:35:56;11.20;99.90
13164;DHT22;6647;53.688;10.746;2023-05-20T02:37:17;11.20;99.90
13164;DHT22;6647;53.688;10.746;2023-05-20T02:38:38;11.20;99.90
13164;DHT22;6647;53.688;10.746;2023-05-20T02:39:59;11.10;99.90
13164;DHT22;6647;53.688;10.746;2023-05-20T02:41:21;11.10;99.90
13164;DHT22;6647;53.688;10.746;2023-05-20T02:42:41;11.20;99.90
13164;DHT22;6647;53.688;10.746;2023-05-20T02:44:02;11.10;99.90
13164;DHT22;6647;53.688;10.746;2023-05-20T02:45:23;11.10;99.90
13164;DHT22;6647;53.688;10.746;2023-05-20T02:46:44;11.10;99.90
13164;DHT22;6647;53.688;10.746;2023-05-20T02:48:05;11.10;99.90
13164;DHT22;6647;53.688;10.746;2023-05-20T02:49:26;11.10;99.90
13164;DHT22;6647;53.688;10.746;2023-05-20T02:50:47;11.10;99.90
13164;DHT22;6647;53.688;10.746;2023-05-20T02:52:08;11.10;99.90
13164;DHT22;6647;53.688;10.746;2023-05-20T02:53:28;11.00;99.90
13164;DHT22;6647;53.688;10.746;2023-05-20T02:54:49;11.10;99.90
13164;DHT22;6647;53.688;10.746;2023-05-20T02:56:11;11.10;99.90
13164;DHT22;6647;53.688;10.746;2023-05-20T02:57:33;11.00;99.90
13164;DHT22;6647;53.688;10.746;2023-05-20T02:58:57;11.00;99.90
13164;DHT22;6647;53.688;10.746;2023-05-20T03:00:18;11.00;99.90
13164;DHT22;6647;53.688;10.746;2023-05-20T03:01:39;11.00;99.90
13164;DHT22;6647;53.688;10.746;2023-05-20T03:03:00;11.00;99.90
13164;DHT22;6647;53.688;10.746;2023-05-20T03:04:22;11.00;99.90
13164;DHT22;6647;53.688;10.746;2023-05-20T03:05:45;11.00;99.90
13164;DHT22;6647;53.688;10.746;2023-05-20T03:07:06;11.00;99.90
13164;DHT22;6647;53.688;10.746;2023-05-20T03:08:28;11.00;99.90
13164;DHT22;6647;53.688;10.746;2023-05-20T03:09:49;11.00;99.90
13164;DHT22;6647;53.688;10.746;2023-05-20T03:11:10;11.10;99.90
13164;DHT22;6647;53.688;10.746;2023-05-20T03:12:31;11.00;99.90
13164;DHT22;6647;53.688;10.746;2023-05-20T03:13:52;11.00;99.90
13164;DHT22;6647;53.688;10.746;2023-05-20T03:15:13;11.00;99.90
13164;DHT22;6647;53.688;10.746;2023-05-20T03:16:34;11.00;99.90
13164;DHT22;6647;53.688;10.746;2023-05-20T03:17:55;11.00;99.90
13164;DHT22;6647;53.688;10.746;2023-05-20T03:19:16;11.00;99.90
13164;DHT22;6647;53.688;10.746;2023-05-20T03:20:37;11.10;99.90
13164;DHT22;6647;53.688;10.746;2023-05-20T03:21:58;11.00;99.90
13164;DHT22;6647;53.688;10.746;2023-05-20T03:23:20;11.10;99.90
13164;DHT22;6647;53.688;10.746;2023-05-20T03:24:41;11.00;99.90
13164;DHT22;6647;53.688;10.746;2023-05-20T03:26:03;11.00;99.90
13164;DHT22;6647;53.688;10.746;2023-05-20T03:27:26;11.00;99.90
13164;DHT22;6647;53.688;10.746;2023-05-20T03:28:47;11.00;99.90
13164;DHT22;6647;53.688;10.746;2023-05-20T03:30:09;11.00;99.90
13164;DHT22;6647;53.688;10.746;2023-05-20T03:31:29;11.10;99.90
13164;DHT22;6647;53.688;10.746;2023-05-20T03:32:50;11.10;99.90
13164;DHT22;6647;53.688;10.746;2023-05-20T03:34:11;11.10;99.90
13164;DHT22;6647;53.688;10.746;2023-05-20T03:35:32;11.10;99.90
13164;DHT22;6647;53.688;10.746;2023-05-20T03:36:53;11.10;99.90
13164;DHT22;6647;53.688;10.746;2023-05-20T03:38:14;11.10;99.90
13164;DHT22;6647;53.688;10.746;2023-05-20T03:39:35;11.00;99.90
13164;DHT22;6647;53.688;10.746;2023-05-20T03:40:56;11.10;99.90
13164;DHT22;6647;53.688;10.746;2023-05-20T03:42:17;11.00;99.90
13164;DHT22;6647;53.688;10.746;2023-05-20T03:43:37;11.10;99.90
13164;DHT22;6647;53.688;10.746;2023-05-20T03:44:59;11.00;99.90
13164;DHT22;6647;53.688;10.746;2023-05-20T03:46:20;11.00;99.90
13164;DHT22;6647;53.688;10.746;2023-05-20T03:47:41;11.10;99.90
13164;DHT22;6647;53.688;10.746;2023-05-20T03:49:02;11.00;99.90
13164;DHT22;6647;53.688;10.746;2023-05-20T03:50:24;11.10;99.90
13164;DHT22;6647;53.688;10.746;2023-05-20T03:51:44;11.00;99.90
13164;DHT22;6647;53.688;10.746;2023-05-20T03:53:05;11.00;99.90
13164;DHT22;6647;53.688;10.746;2023-05-20T03:54:26;11.00;99.90
13164;DHT22;6647;53.688;10.746;2023-05-20T03:55:49;11.00;99.90
13164;DHT22;6647;53.688;10.746;2023-05-20T03:57:10;11.10;99.90
13164;DHT22;6647;53.688;10.746;2023-05-20T03:58:31;11.00;99.90
13164;DHT22;6647;53.688;10.746;2023-05-20T03:59:52;11.00;99.90
13164;DHT22;6647;53.688;10.746;2023-05-20T04:01:13;11.00;99.90
13164;DHT22;6647;53.688;10.746;2023-05-20T04:02:34;11.00;99.90
13164;DHT22;6647;53.688;10.746;2023-05-20T04:03:55;11.00;99.90
13164;DHT22;6647;53.688;10.746;2023-05-20T04:05:16;11.00;99.90
13164;DHT22;6647;53.688;10.746;2023-05-20T04:06:38;11.00;99.90
13164;DHT22;6647;53.688;10.746;2023-05-20T04:08:00;11.00;99.90
13164;DHT22;6647;53.688;10.746;2023-05-20T04:09:21;11.00;99.90
13164;DHT22;6647;53.688;10.746;2023-05-20T04:10:43;11.00;99.90
13164;DHT22;6647;53.688;10.746;2023-05-20T04:12:04;11.10;99.90
13164;DHT22;6647;53.688;10.746;2023-05-20T04:13:25;11.10;99.90
13164;DHT22;6647;53.688;10.746;2023-05-20T04:14:46;11.10;99.90
13164;DHT22;6647;53.688;10.746;2023-05-20T04:16:09;11.00;99.90
13164;DHT22;6647;53.688;10.746;2023-05-20T04:17:30;11.00;99.90
13164;DHT22;6647;53.688;10.746;2023-05-20T04:18:51;11.00;99.90
13164;DHT22;6647;53.688;10.746;2023-05-20T04:20:12;11.00;99.90
13164;DHT22;6647;53.688;10.746;2023-05-20T04:21:33;10.90;99.90
13164;DHT22;6647;53.688;10.746;2023-05-20T04:22:53;10.90;99.90
13164;DHT22;6647;53.688;10.746;2023-05-20T04:24:15;10.90;99.90
13164;DHT22;6647;53.688;10.746;2023-05-20T04:25:35;10.90;99.90
13164;DHT22;6647;53.688;10.746;2023-05-20T04:26:56;10.90;99.90
13164;DHT22;6647;53.688;10.746;2023-05-20T04:28:17;10.90;99.90
13164;DHT22;6647;53.688;10.746;2023-05-20T04:29:38;10.90;99.90
13164;DHT22;6647;53.688;10.746;2023-05-20T04:31:01;10.90;99.90
13164;DHT22;6647;53.688;10.746;2023-05-20T04:32:25;10.90;99.90
13164;DHT22;6647;53.688;10.746;2023-05-20T04:33:46;10.80;99.90
13164;DHT22;6647;53.688;10.746;2023-05-20T04:35:07;10.80;99.90
13164;DHT22;6647;53.688;10.746;2023-05-20T04:36:33;10.80;99.90
13164;DHT22;6647;53.688;10.746;2023-05-20T04:37:54;10.80;99.90
13164;DHT22;6647;53.688;10.746;2023-05-20T04:39:15;10.80;99.90
13164;DHT22;6647;53.688;10.746;2023-05-20T04:40:38;10.80;99.90
13164;DHT22;6647;53.688;10.746;2023-05-20T04:41:59;10.80;99.90
13164;DHT22;6647;53.688;10.746;2023-05-20T04:43:20;10.80;99.90
13164;DHT22;6647;53.688;10.746;2023-05-20T04:44:41;10.80;99.90
13164;DHT22;6647;53.688;10.746;2023-05-20T04:46:02;10.80;99.90
13164;DHT22;6647;53.688;10.746;2023-05-20T04:47:25;10.80;99.90
13164;DHT22;6647;53.688;10.746;2023-05-20T04:48:47;10.80;99.90
13164;DHT22;6647;53.688;10.746;2023-05-20T04:50:09;10.80;99.90
13164;DHT22;6647;53.688;10.746;2023-05-20T04:51:33;10.80;99.90
13164;DHT22;6647;53.688;10.746;2023-05-20T04:52:54;10.80;99.90
13164;DHT22;6647;53.688;10.746;2023-05-20T04:54:15;10.80;99.90
13164;DHT22;6647;53.688;10.746;2023-05-20T04:55:37;10.80;99.90
13164;DHT22;6647;53.688;10.746;2023-05-20T04:56:58;10.80;99.90
13164;DHT22;6647;53.688;10.746;2023-05-20T04:58:19;10.80;99.90
13164;DHT22;6647;53.688;10.746;2023-05-20T04:59:43;10.80;99.90
13164;DHT22;6647;53.688;10.746;2023-05-20T05:01:05;10.80;99.90
13164;DHT22;6647;53.688;10.746;2023-05-20T05:02:26;10.80;99.90
13164;DHT22;6647;53.688;10.746;2023-05-20T05:03:47;10.90;99.90
13164;DHT22;6647;53.688;10.746;2023-05-20T05:05:09;10.90;99.90
13164;DHT22;6647;53.688;10.746;2023-05-20T05:06:30;10.90;99.90
13164;DHT22;6647;53.688;10.746;2023-05-20T05:07:51;10.80;99.90
13164;DHT22;6647;53.688;10.746;2023-05-20T05:09:12;10.90;99.90
13164;DHT22;6647;53.688;10.746;2023-05-20T05:10:34;10.90;99.90
13164;DHT22;6647;53.688;10.746;2023-05-20T05:11:55;10.80;99.90
13164;DHT22;6647;53.688;10.746;2023-05-20T05:13:16;10.80;99.90
13164;DHT22;6647;53.688;10.746;2023-05-20T05:14:38;10.80;99.90
13164;DHT22;6647;53.688;10.746;2023-05-20T05:16:00;10.90;99.90
13164;DHT22;6647;53.688;10.746;2023-05-20T05:17:21;10.90;99.90
13164;DHT22;6647;53.688;10.746;2023-05-20T05:18:42;10.90;99.90
13164;DHT22;6647;53.688;10.746;2023-05-20T05:20:03;11.00;99.90
13164;DHT22;6647;53.688;10.746;2023-05-20T05:21:24;11.00;99.90
13164;DHT22;6647;53.688;10.746;2023-05-20T05:22:45;11.00;99.90
13164;DHT22;6647;53.688;10.746;2023-05-20T05:24:06;11.00;99.90
13164;DHT22;6647;53.688;10.746;2023-05-20T05:25:27;11.10;99.90
13164;DHT22;6647;53.688;10.746;2023-05-20T05:26:52;11.10;99.90
13164;DHT22;6647;53.688;10.746;2023-05-20T05:28:13;11.20;99.90
13164;DHT22;6647;53.688;10.746;2023-05-20T05:29:34;11.20;99.90
13164;DHT22;6647;53.688;10.746;2023-05-20T05:30:55;11.20;99.90
13164;DHT22;6647;53.688;10.746;2023-05-20T05:32:16;11.20;99.90
13164;DHT22;6647;53.688;10.746;2023-05-20T05:33:37;11.20;99.90
13164;DHT22;6647;53.688;10.746;2023-05-20T05:34:58;11.30;99.90
13164;DHT22;6647;53.688;10.746;2023-05-20T05:36:19;11.30;99.90
13164;DHT22;6647;53.688;10.746;2023-05-20T05:37:40;11.30;99.90
13164;DHT22;6647;53.688;10.746;2023-05-20T05:39:01;11.40;99.90
13164;DHT22;6647;53.688;10.746;2023-05-20T05:40:22;11.40;99.90
13164;DHT22;6647;53.688;10.746;2023-05-20T05:41:43;11.40;99.90
13164;DHT22;6647;53.688;10.746;2023-05-20T05:43:04;11.40;99.90
13164;DHT22;6647;53.688;10.746;2023-05-20T05:44:25;11.40;99.90
13164;DHT22;6647;53.688;10.746;2023-05-20T05:45:46;11.40;99.90
13164;DHT22;6647;53.688;10.746;2023-05-20T05:47:07;11.50;99.90
13164;DHT22;6647;53.688;10.746;2023-05-20T05:48:28;11.50;99.90
13164;DHT22;6647;53.688;10.746;2023-05-20T05:49:49;11.50;99.90
13164;DHT22;6647;53.688;10.746;2023-05-20T05:51:10;11.60;99.90
13164;DHT22;6647;53.688;10.746;2023-05-20T05:52:31;11.60;99.90
13164;DHT22;6647;53.688;10.746;2023-05-20T05:53:52;11.60;99.90
13164;DHT22;6647;53.688;10.746;2023-05-20T05:55:13;11.70;99.90
13164;DHT22;6647;53.688;10.746;2023-05-20T05:56:34;11.70;99.90
13164;DHT22;6647;53.688;10.746;2023-05-20T05:57:55;11.80;99.90
13164;DHT22;6647;53.688;10.746;2023-05-20T05:59:16;11.80;99.90
13164;DHT22;6647;53.688;10.746;2023-05-20T06:00:37;11.90;99.90
13164;DHT22;6647;53.688;10.746;2023-05-20T06:01:58;11.90;99.90
13164;DHT22;6647;53.688;10.746;2023-05-20T06:03:21;12.00;99.90
13164;DHT22;6647;53.688;10.746;2023-05-20T06:04:42;12.00;99.90
13164;DHT22;6647;53.688;10.746;2023-05-20T06:06:03;12.10;99.90
13164;DHT22;6647;53.688;10.746;2023-05-20T06:07:24;12.10;99.90
13164;DHT22;6647;53.688;10.746;2023-05-20T06:08:45;12.10;99.90
13164;DHT22;6647;53.688;10.746;2023-05-20T06:10:07;12.20;99.90
13164;DHT22;6647;53.688;10.746;2023-05-20T06:11:28;12.20;99.90
13164;DHT22;6647;53.688;10.746;2023-05-20T06:12:49;12.20;99.90
13164;DHT22;6647;53.688;10.746;2023-05-20T06:14:10;12.30;99.90
13164;DHT22;6647;53.688;10.746;2023-05-20T06:15:30;12.30;99.90
13164;DHT22;6647;53.688;10.746;2023-05-20T06:16:51;12.30;99.90
13164;DHT22;6647;53.688;10.746;2023-05-20T06:18:12;12.40;99.90
13164;DHT22;6647;53.688;10.746;2023-05-20T06:19:33;12.50;99.90
13164;DHT22;6647;53.688;10.746;2023-05-20T06:20:58;12.50;99.90
13164;DHT22;6647;53.688;10.746;2023-05-20T06:22:19;12.60;99.90
13164;DHT22;6647;53.688;10.746;2023-05-20T06:23:40;12.60;99.90
13164;DHT22;6647;53.688;10.746;2023-05-20T06:25:01;12.60;99.90
13164;DHT22;6647;53.688;10.746;2023-05-20T06:26:22;12.70;99.90
13164;DHT22;6647;53.688;10.746;2023-05-20T06:27:43;12.70;99.90
13164;DHT22;6647;53.688;10.746;2023-05-20T06:29:04;12.80;99.90
13164;DHT22;6647;53.688;10.746;2023-05-20T06:30:25;12.80;99.90
13164;DHT22;6647;53.688;10.746;2023-05-20T06:31:45;12.80;99.90
13164;DHT22;6647;53.688;10.746;2023-05-20T06:33:07;12.90;99.90
13164;DHT22;6647;53.688;10.746;2023-05-20T06:34:27;12.90;99.90
13164;DHT22;6647;53.688;10.746;2023-05-20T06:35:48;12.90;99.90
13164;DHT22;6647;53.688;10.746;2023-05-20T06:37:09;13.00;99.90
13164;DHT22;6647;53.688;10.746;2023-05-20T06:38:31;13.00;99.90
13164;DHT22;6647;53.688;10.746;2023-05-20T06:39:52;13.00;99.90
13164;DHT22;6647;53.688;10.746;2023-05-20T06:41:13;13.00;99.90
13164;DHT22;6647;53.688;10.746;2023-05-20T06:42:34;13.10;99.90
13164;DHT22;6647;53.688;10.746;2023-05-20T06:43:55;13.20;99.90
13164;DHT22;6647;53.688;10.746;2023-05-20T06:45:16;13.20;99.90
13164;DHT22;6647;53.688;10.746;2023-05-20T06:46:36;13.30;99.90
13164;DHT22;6647;53.688;10.746;2023-05-20T06:47:57;13.30;99.90
13164;DHT22;6647;53.688;10.746;2023-05-20T06:49:18;13.40;99.90
13164;DHT22;6647;53.688;10.746;2023-05-20T06:50:39;13.40;99.90
13164;DHT22;6647;53.688;10.746;2023-05-20T06:52:00;13.40;99.90
13164;DHT22;6647;53.688;10.746;2023-05-20T06:53:21;13.50;99.90
13164;DHT22;6647;53.688;10.746;2023-05-20T06:54:42;13.60;99.90
13164;DHT22;6647;53.688;10.746;2023-05-20T06:56:03;13.60;99.90
13164;DHT22;6647;53.688;10.746;2023-05-20T06:57:24;13.60;99.90
13164;DHT22;6647;53.688;10.746;2023-05-20T06:58:45;13.70;99.90
13164;DHT22;6647;53.688;10.746;2023-05-20T07:00:06;13.70;99.90
13164;DHT22;6647;53.688;10.746;2023-05-20T07:01:27;13.70;99.90
13164;DHT22;6647;53.688;10.746;2023-05-20T07:02:48;13.80;99.90
13164;DHT22;6647;53.688;10.746;2023-05-20T07:04:09;13.80;99.90
13164;DHT22;6647;53.688;10.746;2023-05-20T07:05:30;13.80;99.90
13164;DHT22;6647;53.688;10.746;2023-05-20T07:06:51;13.80;99.90
13164;DHT22;6647;53.688;10.746;2023-05-20T07:08:12;13.90;99.90
13164;DHT22;6647;53.688;10.746;2023-05-20T07:09:32;13.90;99.90
13164;DHT22;6647;53.688;10.746;2023-05-20T07:10:56;14.00;99.90
13164;DHT22;6647;53.688;10.746;2023-05-20T07:12:17;14.00;99.90
13164;DHT22;6647;53.688;10.746;2023-05-20T07:13:38;14.10;99.90
13164;DHT22;6647;53.688;10.746;2023-05-20T07:14:59;14.10;99.90
13164;DHT22;6647;53.688;10.746;2023-05-20T07:16:21;14.10;99.90
13164;DHT22;6647;53.688;10.746;2023-05-20T07:17:41;14.20;99.90
13164;DHT22;6647;53.688;10.746;2023-05-20T07:19:03;14.20;99.90
13164;DHT22;6647;53.688;10.746;2023-05-20T07:20:24;14.20;99.90
13164;DHT22;6647;53.688;10.746;2023-05-20T07:21:45;14.20;99.90
13164;DHT22;6647;53.688;10.746;2023-05-20T07:23:06;14.30;99.90
13164;DHT22;6647;53.688;10.746;2023-05-20T07:24:27;14.30;99.90
13164;DHT22;6647;53.688;10.746;2023-05-20T07:25:48;14.30;99.90
13164;DHT22;6647;53.688;10.746;2023-05-20T07:27:09;14.30;99.90
13164;DHT22;6647;53.688;10.746;2023-05-20T07:28:31;14.40;99.90
13164;DHT22;6647;53.688;10.746;2023-05-20T07:29:52;14.40;99.90
13164;DHT22;6647;53.688;10.746;2023-05-20T07:31:13;14.50;99.90
13164;DHT22;6647;53.688;10.746;2023-05-20T07:32:34;14.50;99.90
13164;DHT22;6647;53.688;10.746;2023-05-20T07:33:55;14.60;99.90
13164;DHT22;6647;53.688;10.746;2023-05-20T07:35:16;14.60;99.90
13164;DHT22;6647;53.688;10.746;2023-05-20T07:36:40;14.60;99.90
13164;DHT22;6647;53.688;10.746;2023-05-20T07:38:05;14.60;99.90
13164;DHT22;6647;53.688;10.746;2023-05-20T07:39:26;14.60;99.90
13164;DHT22;6647;53.688;10.746;2023-05-20T07:40:47;14.70;99.90
13164;DHT22;6647;53.688;10.746;2023-05-20T07:42:08;14.70;99.90
13164;DHT22;6647;53.688;10.746;2023-05-20T07:43:29;14.70;99.90
13164;DHT22;6647;53.688;10.746;2023-05-20T07:44:50;14.80;99.90
13164;DHT22;6647;53.688;10.746;2023-05-20T07:46:11;14.80;99.90
13164;DHT22;6647;53.688;10.746;2023-05-20T07:47:31;14.90;99.90
13164;DHT22;6647;53.688;10.746;2023-05-20T07:48:52;14.90;99.90
13164;DHT22;6647;53.688;10.746;2023-05-20T07:50:13;15.00;99.90
13164;DHT22;6647;53.688;10.746;2023-05-20T07:51:34;15.00;99.90
13164;DHT22;6647;53.688;10.746;2023-05-20T07:52:55;15.00;99.90
13164;DHT22;6647;53.688;10.746;2023-05-20T07:54:19;15.00;99.90
13164;DHT22;6647;53.688;10.746;2023-05-20T07:55:40;15.00;99.90
13164;DHT22;6647;53.688;10.746;2023-05-20T07:57:02;15.10;99.90
13164;DHT22;6647;53.688;10.746;2023-05-20T07:58:23;15.10;99.90
13164;DHT22;6647;53.688;10.746;2023-05-20T07:59:23;15.10;99.90
13164;DHT22;6647;53.688;10.746;2023-05-20T08:00:28;15.10;99.90
13164;DHT22;6647;53.688;10.746;2023-05-20T08:01:28;15.20;99.90
13164;DHT22;6647;53.688;10.746;2023-05-20T08:02:29;15.20;99.90
13164;DHT22;6647;53.688;10.746;2023-05-20T08:03:30;15.20;99.90
13164;DHT22;6647;53.688;10.746;2023-05-20T08:04:30;15.20;99.90
13164;DHT22;6647;53.688;10.746;2023-05-20T08:05:31;15.30;99.90
13164;DHT22;6647;53.688;10.746;2023-05-20T08:06:31;15.30;99.90
13164;DHT22;6647;53.688;10.746;2023-05-20T08:07:32;15.30;99.90
13164;DHT22;6647;53.688;10.746;2023-05-20T08:08:33;15.30;99.90
13164;DHT22;6647;53.688;10.746;2023-05-20T08:09:36;15.30;99.90
13164;DHT22;6647;53.688;10.746;2023-05-20T08:10:37;15.30;99.90
13164;DHT22;6647;53.688;10.746;2023-05-20T08:11:38;15.40;99.90
13164;DHT22;6647;53.688;10.746;2023-05-20T08:12:39;15.40;99.90
13164;DHT22;6647;53.688;10.746;2023-05-20T08:13:39;15.40;99.90
13164;DHT22;6647;53.688;10.746;2023-05-20T08:14:40;15.50;99.90
13164;DHT22;6647;53.688;10.746;2023-05-20T08:15:41;15.50;99.90
13164;DHT22;6647;53.688;10.746;2023-05-20T08:16:44;15.50;99.90
13164;DHT22;6647;53.688;10.746;2023-05-20T08:17:45;15.50;99.90
13164;DHT22;6647;53.688;10.746;2023-05-20T08:18:46;15.50;99.90
13164;DHT22;6647;53.688;10.746;2023-05-20T08:19:47;15.50;99.90
13164;DHT22;6647;53.688;10.746;2023-05-20T08:20:47;15.50;99.90
13164;DHT22;6647;53.688;10.746;2023-05-20T08:21:48;15.50;99.90
13164;DHT22;6647;53.688;10.746;2023-05-20T08:22:48;15.50;99.90
13164;DHT22;6647;53.688;10.746;2023-05-20T08:23:49;15.50;99.90
13164;DHT22;6647;53.688;10.746;2023-05-20T08:24:50;15.50;99.90
13164;DHT22;6647;53.688;10.746;2023-05-20T08:25:51;15.50;99.90